createdAt,value
2018-09-18T00:00:35.976Z,7.90
2018-09-18T00:03:04.479Z,7.30
2018-09-18T00:05:32.972Z,8.40
2018-09-18T00:08:01.472Z,7.90
2018-09-18T00:10:30.180Z,7.60
2018-09-18T00:12:59.548Z,7.70
2018-09-18T00:15:28.035Z,8.13
2018-09-18T00:17:56.580Z,7.60
2018-09-18T00:20:25.468Z,7.37
2018-09-18T00:22:53.965Z,7.90
2018-09-18T00:25:22.463Z,7.17
2018-09-18T00:27:50.963Z,8.43
2018-09-18T00:30:19.461Z,8.33
2018-09-18T00:32:47.956Z,8.10
2018-09-18T00:35:16.447Z,7.07
2018-09-18T00:37:44.942Z,8.20
2018-09-18T00:40:13.443Z,7.97
2018-09-18T00:42:41.969Z,8.07
2018-09-18T00:45:10.475Z,7.23
2018-09-18T00:47:38.983Z,7.60
2018-09-18T00:50:07.488Z,7.50
2018-09-18T00:52:35.983Z,8.00
2018-09-18T00:55:04.473Z,7.40
2018-09-18T00:57:32.983Z,8.57
2018-09-18T01:00:01.495Z,7.63
2018-09-18T01:02:29.991Z,7.43
2018-09-18T01:04:58.487Z,7.50
2018-09-18T01:07:27.015Z,7.70
2018-09-18T01:09:56.016Z,8.17
2018-09-18T01:12:24.507Z,7.83
2018-09-18T01:14:53.090Z,8.17
2018-09-18T01:17:21.595Z,8.07
2018-09-18T01:19:50.094Z,7.73
2018-09-18T01:22:18.592Z,7.53
2018-09-18T01:24:47.083Z,7.50
2018-09-18T01:27:15.584Z,7.87
2018-09-18T01:29:44.088Z,8.00
2018-09-18T01:32:12.592Z,7.60
2018-09-18T01:34:41.088Z,8.13
2018-09-18T01:37:09.590Z,7.00
2018-09-18T01:39:38.083Z,7.53
2018-09-18T01:42:06.951Z,7.63
2018-09-18T01:44:35.607Z,6.77
2018-09-18T01:47:04.583Z,7.57
2018-09-18T01:49:33.075Z,8.07
2018-09-18T01:52:01.576Z,7.57
2018-09-18T01:54:30.076Z,7.37
2018-09-18T01:56:58.627Z,7.43
2018-09-18T01:59:27.174Z,7.90
2018-09-18T02:01:55.667Z,7.77
2018-09-18T02:04:24.167Z,7.60
2018-09-18T02:06:52.847Z,7.57
2018-09-18T02:09:21.354Z,7.53
2018-09-18T02:11:49.852Z,7.70
2018-09-18T02:14:18.355Z,7.57
2018-09-18T02:16:46.855Z,7.23
2018-09-18T02:19:15.351Z,7.00
2018-09-18T02:21:43.844Z,7.37
2018-09-18T02:24:12.373Z,7.27
2018-09-18T02:26:40.872Z,7.30
2018-09-18T02:29:09.371Z,7.37
2018-09-18T02:31:37.861Z,7.80
2018-09-18T02:34:06.839Z,7.40
2018-09-18T02:36:35.339Z,8.03
2018-09-18T02:39:05.143Z,7.40
2018-09-18T02:41:33.660Z,7.40
2018-09-18T02:44:02.167Z,7.53
2018-09-18T02:46:30.730Z,7.20
2018-09-18T02:48:59.228Z,7.47
2018-09-18T02:51:27.735Z,6.97
2018-09-18T02:53:56.244Z,6.97
2018-09-18T02:56:24.742Z,7.20
2018-09-18T02:59:07.604Z,7.63
2018-09-18T03:01:36.102Z,6.77
2018-09-18T03:04:04.615Z,6.67
2018-09-18T03:06:33.111Z,7.70
2018-09-18T03:09:01.612Z,6.83
2018-09-18T03:11:30.169Z,6.90
2018-09-18T03:13:58.644Z,6.90
2018-09-18T03:16:27.147Z,6.73
2018-09-18T03:18:55.655Z,7.23
2018-09-18T03:21:24.195Z,7.00
2018-09-18T03:23:52.701Z,7.00
2018-09-18T03:26:21.202Z,7.30
2018-09-18T03:28:49.703Z,6.77
2018-09-18T03:31:18.211Z,7.00
2018-09-18T03:33:46.720Z,7.03
2018-09-18T03:36:15.211Z,7.03
2018-09-18T03:38:43.717Z,7.47
2018-09-18T03:41:12.212Z,7.30
2018-09-18T03:43:40.714Z,7.17
2018-09-18T03:46:09.215Z,7.17
2018-09-18T03:48:37.715Z,6.90
2018-09-18T03:51:06.211Z,6.97
2018-09-18T03:53:34.703Z,7.03
2018-09-18T03:56:03.195Z,6.70
2018-09-18T03:58:31.695Z,6.67
2018-09-18T04:01:00.191Z,6.67
2018-09-18T04:03:28.691Z,6.77
2018-09-18T04:05:57.187Z,6.93
2018-09-18T04:08:25.687Z,6.90
2018-09-18T04:10:54.192Z,7.17
2018-09-18T04:13:22.685Z,6.53
2018-09-18T04:15:51.276Z,7.20
2018-09-18T04:18:22.347Z,6.80
2018-09-18T04:20:50.843Z,7.03
2018-09-18T04:23:19.743Z,7.13
2018-09-18T04:25:48.723Z,6.93
2018-09-18T04:28:17.226Z,6.87
2018-09-18T04:30:45.766Z,6.97
2018-09-18T04:33:14.263Z,6.67
2018-09-18T04:35:42.763Z,6.50
2018-09-18T04:38:11.255Z,7.00
2018-09-18T04:40:39.746Z,6.57
2018-09-18T04:43:08.252Z,7.37
2018-09-18T04:45:36.755Z,6.50
2018-09-18T04:48:05.256Z,6.73
2018-09-18T04:50:33.772Z,7.23
2018-09-18T04:53:02.259Z,6.93
2018-09-18T04:55:30.792Z,6.57
2018-09-18T04:57:59.287Z,6.57
2018-09-18T05:00:27.791Z,6.73
2018-09-18T05:02:56.299Z,6.47
2018-09-18T05:05:24.791Z,7.00
2018-09-18T05:07:53.291Z,6.63
2018-09-18T05:10:21.796Z,6.23
2018-09-18T05:12:50.294Z,6.83
2018-09-18T05:15:18.798Z,6.57
2018-09-18T05:17:47.308Z,6.90
2018-09-18T05:20:15.807Z,6.50
2018-09-18T05:22:44.315Z,6.20
2018-09-18T05:25:12.810Z,6.20
2018-09-18T05:27:41.305Z,6.17
2018-09-18T05:30:09.810Z,6.30
2018-09-18T05:32:38.323Z,6.77
2018-09-18T05:35:06.815Z,6.50
2018-09-18T05:37:35.308Z,6.23
2018-09-18T05:40:03.812Z,6.40
2018-09-18T05:42:32.307Z,6.33
2018-09-18T05:45:00.873Z,6.13
2018-09-18T05:47:29.379Z,6.37
2018-09-18T05:49:57.875Z,6.60
2018-09-18T05:52:26.389Z,6.40
2018-09-18T05:54:54.882Z,6.37
2018-09-18T05:57:23.447Z,6.57
2018-09-18T05:59:51.935Z,6.60
2018-09-18T06:02:20.554Z,6.27
2018-09-18T06:04:48.947Z,6.60
2018-09-18T06:07:17.460Z,6.33
2018-09-18T06:09:45.959Z,6.17
2018-09-18T06:12:14.479Z,6.30
2018-09-18T06:14:43.220Z,6.23
2018-09-18T06:17:11.720Z,6.13
2018-09-18T06:19:40.224Z,6.53
2018-09-18T06:22:09.034Z,6.40
2018-09-18T06:24:37.525Z,6.60
2018-09-18T06:27:06.955Z,6.77
2018-09-18T06:29:35.464Z,6.37
2018-09-18T06:32:04.327Z,6.03
2018-09-18T06:34:32.822Z,6.57
2018-09-18T06:37:01.451Z,6.63
2018-09-18T06:39:29.937Z,6.10
2018-09-18T06:41:58.428Z,6.37
2018-09-18T06:44:26.928Z,5.93
2018-09-18T06:46:55.423Z,6.17
2018-09-18T06:49:23.915Z,6.40
2018-09-18T06:51:52.415Z,6.33
2018-09-18T06:54:20.936Z,6.23
2018-09-18T06:56:49.443Z,6.20
2018-09-18T06:59:17.941Z,6.03
2018-09-18T07:01:46.452Z,6.03
2018-09-18T07:04:14.952Z,6.67
2018-09-18T07:06:43.443Z,6.30
2018-09-18T07:09:11.947Z,6.83
2018-09-18T07:11:40.456Z,5.97
2018-09-18T07:14:08.968Z,6.47
2018-09-18T07:16:37.539Z,6.23
2018-09-18T07:19:06.583Z,6.43
2018-09-18T07:21:35.825Z,6.47
2018-09-18T07:24:04.354Z,6.10
2018-09-18T07:26:32.859Z,6.20
2018-09-18T07:29:01.347Z,6.83
2018-09-18T07:31:29.858Z,6.47
2018-09-18T07:33:58.344Z,6.37
2018-09-18T07:36:26.846Z,6.10
2018-09-18T07:38:55.376Z,6.60
2018-09-18T07:41:24.464Z,6.33
2018-09-18T07:43:52.959Z,6.37
2018-09-18T07:46:21.512Z,6.30
2018-09-18T07:48:50.016Z,6.70
2018-09-18T07:51:18.519Z,6.80
2018-09-18T07:53:47.031Z,6.00
2018-09-18T07:56:15.535Z,6.37
2018-09-18T07:58:44.037Z,5.93
2018-09-18T08:01:27.160Z,6.27
2018-09-18T08:03:56.132Z,5.50
2018-09-18T08:06:24.740Z,6.37
2018-09-18T08:08:53.244Z,6.03
2018-09-18T08:11:21.752Z,6.37
2018-09-18T08:13:50.575Z,6.47
2018-09-18T08:16:19.077Z,6.17
2018-09-18T08:18:47.652Z,6.63
2018-09-18T08:21:16.115Z,5.97
2018-09-18T08:23:44.604Z,6.40
2018-09-18T08:26:13.107Z,5.87
2018-09-18T08:28:41.622Z,6.33
2018-09-18T08:31:10.395Z,6.40
2018-09-18T08:33:38.884Z,6.60
2018-09-18T08:36:07.396Z,6.90
2018-09-18T08:38:35.895Z,6.50
2018-09-18T08:41:04.600Z,7.00
2018-09-18T08:43:33.131Z,6.70
2018-09-18T08:46:01.692Z,6.27
2018-09-18T08:48:31.552Z,6.13
2018-09-18T08:51:01.525Z,6.80
2018-09-18T08:53:31.445Z,6.63
2018-09-18T08:55:59.945Z,6.37
2018-09-18T08:58:28.459Z,6.67
2018-09-18T09:00:56.992Z,6.60
2018-09-18T09:03:25.491Z,6.87
2018-09-18T09:05:54.046Z,6.80
2018-09-18T09:08:22.572Z,6.83
2018-09-18T09:10:51.054Z,6.90
2018-09-18T09:13:19.548Z,7.00
2018-09-18T09:15:48.071Z,6.53
2018-09-18T09:18:16.665Z,7.00
2018-09-18T09:20:48.145Z,6.60
2018-09-18T09:23:16.620Z,6.80
2018-09-18T09:25:45.108Z,6.43
2018-09-18T09:28:13.634Z,7.20
2018-09-18T09:30:42.173Z,6.97
2018-09-18T09:33:10.700Z,6.70
2018-09-18T09:35:39.207Z,7.30
2018-09-18T09:38:07.978Z,7.00
2018-09-18T09:40:36.468Z,7.13
2018-09-18T09:43:05.072Z,7.07
2018-09-18T09:45:33.564Z,6.87
2018-09-18T09:48:02.052Z,7.33
2018-09-18T09:50:30.552Z,7.17
2018-09-18T09:52:59.051Z,7.00
2018-09-18T09:55:27.547Z,6.97
2018-09-18T09:57:56.059Z,6.60
2018-09-18T10:00:29.971Z,7.10
2018-09-18T10:02:58.517Z,7.00
2018-09-18T10:05:27.416Z,7.47
2018-09-18T10:07:55.912Z,7.67
2018-09-18T10:10:24.447Z,6.93
2018-09-18T10:12:52.957Z,7.70
2018-09-18T10:15:21.459Z,7.50
2018-09-18T10:17:49.993Z,7.33
2018-09-18T10:20:18.503Z,7.77
2018-09-18T10:22:47.016Z,7.60
2018-09-18T10:25:15.559Z,7.53
2018-09-18T10:27:44.041Z,7.90
2018-09-18T10:30:12.554Z,7.47
2018-09-18T10:32:41.164Z,7.27
2018-09-18T10:35:09.588Z,8.77
2018-09-18T10:37:38.118Z,8.90
2018-09-18T10:40:07.022Z,7.97
2018-09-18T10:42:35.528Z,7.67
2018-09-18T10:45:04.403Z,8.37
2018-09-18T10:47:32.903Z,7.93
2018-09-18T10:50:01.403Z,8.37
2018-09-18T10:52:29.952Z,8.47
2018-09-18T10:54:58.419Z,7.67
2018-09-18T10:57:26.912Z,7.40
2018-09-18T10:59:55.415Z,9.70
2018-09-18T11:02:24.062Z,8.93
2018-09-18T11:04:52.476Z,9.30
2018-09-18T11:07:22.395Z,8.83
2018-09-18T11:09:50.958Z,8.70
2018-09-18T11:12:22.063Z,8.30
2018-09-18T11:14:51.221Z,8.60
2018-09-18T11:17:20.204Z,8.53
2018-09-18T11:19:48.897Z,8.30
2018-09-18T11:22:17.792Z,7.87
2018-09-18T11:24:46.505Z,9.10
2018-09-18T11:27:15.913Z,8.87
2018-09-18T11:29:44.404Z,8.20
2018-09-18T11:32:12.954Z,8.60
2018-09-18T11:34:41.447Z,8.70
2018-09-18T11:37:09.972Z,9.17
2018-09-18T11:39:38.464Z,9.53
2018-09-18T11:42:06.993Z,9.43
2018-09-18T11:44:35.495Z,8.97
2018-09-18T11:47:03.996Z,9.13
2018-09-18T11:49:32.499Z,9.13
2018-09-18T11:52:00.991Z,9.03
2018-09-18T11:54:29.511Z,8.97
2018-09-18T11:56:58.064Z,9.27
2018-09-18T11:59:26.567Z,8.73
2018-09-18T12:01:55.099Z,9.47
2018-09-18T12:04:23.609Z,9.10
2018-09-18T12:06:52.104Z,8.70
2018-09-18T12:09:20.596Z,8.83
2018-09-18T12:14:31.976Z,9.47
2018-09-18T12:17:00.511Z,8.73
2018-09-18T12:19:29.007Z,8.57
2018-09-18T12:21:57.507Z,9.03
2018-09-18T12:24:26.008Z,9.27
2018-09-18T12:26:54.511Z,9.20
2018-09-18T12:29:23.304Z,8.77
2018-09-18T12:31:51.811Z,9.37
2018-09-18T12:34:20.341Z,8.77
2018-09-18T12:36:48.827Z,8.80
2018-09-18T12:39:17.324Z,8.43
2018-09-18T12:41:45.899Z,8.60
2018-09-18T12:44:14.399Z,8.63
2018-09-18T12:46:42.899Z,8.13
2018-09-18T12:49:11.434Z,8.70
2018-09-18T12:51:39.936Z,7.70
2018-09-18T12:54:08.469Z,8.20
2018-09-18T12:56:36.965Z,8.67
2018-09-18T12:59:05.983Z,8.23
2018-09-18T13:01:34.478Z,8.90
2018-09-18T13:04:02.980Z,8.40
2018-09-18T13:06:31.692Z,8.70
2018-09-18T13:09:00.019Z,9.20
2018-09-18T13:11:28.539Z,8.63
2018-09-18T13:13:57.059Z,8.30
2018-09-18T13:16:25.585Z,9.10
2018-09-18T13:18:54.248Z,8.50
2018-09-18T13:21:22.756Z,8.83
2018-09-18T13:23:51.268Z,8.53
2018-09-18T13:26:19.755Z,9.00
2018-09-18T13:28:48.275Z,8.27
2018-09-18T13:31:16.775Z,9.00
2018-09-18T13:33:45.276Z,8.67
2018-09-18T13:36:13.770Z,8.47
2018-09-18T13:38:42.279Z,9.13
2018-09-18T13:41:11.185Z,8.30
2018-09-18T13:43:39.684Z,8.70
2018-09-18T13:46:08.548Z,8.27
2018-09-18T13:48:37.051Z,8.57
2018-09-18T13:51:05.600Z,8.33
2018-09-18T13:53:34.095Z,8.30
2018-09-18T13:56:02.626Z,7.97
2018-09-18T13:58:31.115Z,8.27
2018-09-18T14:00:59.710Z,8.20
2018-09-18T14:03:28.200Z,8.53
2018-09-18T14:05:56.695Z,7.67
2018-09-18T14:08:25.222Z,7.93
2018-09-18T14:10:53.711Z,8.17
2018-09-18T14:13:22.491Z,8.10
2018-09-18T14:15:51.001Z,9.10
2018-09-18T14:18:19.501Z,8.77
2018-09-18T14:20:48.004Z,8.07
2018-09-18T14:23:16.496Z,8.30
2018-09-18T14:25:44.998Z,7.50
2018-09-18T14:28:13.504Z,8.40
2018-09-18T14:30:42.004Z,8.03
2018-09-18T14:33:10.571Z,8.27
2018-09-18T14:35:39.035Z,8.00
2018-09-18T14:38:07.538Z,8.43
2018-09-18T14:40:36.129Z,7.83
2018-09-18T14:43:04.557Z,8.33
2018-09-18T14:45:33.047Z,8.07
2018-09-18T14:48:01.544Z,8.40
2018-09-18T14:50:30.095Z,7.90
2018-09-18T14:52:58.619Z,8.27
2018-09-18T14:55:27.124Z,7.53
2018-09-18T14:57:55.617Z,8.00
2018-09-18T15:00:24.112Z,8.20
2018-09-18T15:02:52.618Z,7.17
2018-09-18T15:05:21.115Z,7.80
2018-09-18T15:07:49.609Z,8.20
2018-09-18T15:10:18.111Z,8.07
2018-09-18T15:12:46.607Z,7.93
2018-09-18T15:15:15.132Z,7.67
2018-09-18T15:17:43.639Z,7.63
2018-09-18T15:20:12.145Z,7.77
2018-09-18T15:22:40.816Z,7.83
2018-09-18T15:25:09.317Z,7.90
2018-09-18T15:27:37.899Z,7.77
2018-09-18T15:30:06.350Z,7.73
2018-09-18T15:32:34.862Z,7.97
2018-09-18T15:35:03.359Z,7.97
2018-09-18T15:37:31.856Z,8.13
2018-09-18T15:40:00.439Z,7.77
2018-09-18T15:42:29.403Z,7.97
2018-09-18T15:44:57.907Z,8.03
2018-09-18T15:47:26.430Z,7.70
2018-09-18T15:49:55.135Z,8.63
2018-09-18T15:52:23.626Z,7.70
2018-09-18T15:54:52.122Z,8.03
2018-09-18T15:57:20.616Z,7.90
2018-09-18T15:59:49.112Z,7.57
2018-09-18T16:02:17.616Z,8.03
2018-09-18T16:04:46.130Z,8.03
2018-09-18T16:07:14.627Z,8.03
2018-09-18T16:09:43.141Z,8.20
2018-09-18T16:12:11.657Z,7.17
2018-09-18T16:14:40.166Z,7.60
2018-09-18T16:17:08.704Z,8.10
2018-09-18T16:19:37.217Z,8.03
2018-09-18T16:22:05.729Z,7.80
2018-09-18T16:24:34.228Z,8.23
2018-09-18T16:27:02.719Z,8.33
2018-09-18T16:29:31.273Z,7.80
2018-09-18T16:31:59.739Z,8.00
2018-09-18T16:34:28.268Z,7.90
2018-09-18T16:36:56.844Z,7.63
2018-09-18T16:39:26.004Z,7.60
2018-09-18T16:41:54.767Z,7.70
2018-09-18T16:44:23.280Z,7.73
2018-09-18T16:46:51.795Z,7.50
2018-09-18T16:49:20.300Z,8.00
2018-09-18T16:51:48.812Z,7.77
2018-09-18T16:54:17.393Z,7.30
2018-09-18T16:56:45.848Z,8.00
2018-09-18T16:59:14.345Z,8.03
2018-09-18T17:01:42.865Z,7.60
2018-09-18T17:04:11.367Z,7.57
2018-09-18T17:06:39.916Z,8.00
2018-09-18T17:09:09.164Z,8.00
2018-09-18T17:11:38.220Z,7.60
2018-09-18T17:14:07.069Z,7.33
2018-09-18T17:16:35.672Z,7.27
2018-09-18T17:19:04.112Z,7.93
2018-09-18T17:21:32.620Z,7.77
2018-09-18T17:24:01.515Z,7.97
2018-09-18T17:26:30.191Z,6.97
2018-09-18T17:28:58.806Z,7.70
2018-09-18T17:31:27.536Z,7.63
2018-09-18T17:33:56.059Z,7.30
2018-09-18T17:36:24.951Z,7.90
2018-09-18T17:38:53.451Z,7.73
2018-09-18T17:41:21.992Z,7.80
2018-09-18T17:43:50.477Z,7.20
2018-09-18T17:46:18.990Z,7.30
2018-09-18T17:48:47.504Z,7.93
2018-09-18T17:51:16.019Z,7.50
2018-09-18T17:53:45.112Z,7.43
2018-09-18T17:56:13.610Z,7.47
2018-09-18T17:58:42.119Z,7.20
2018-09-18T18:01:10.940Z,7.97
2018-09-18T18:03:39.443Z,8.07
2018-09-18T18:06:07.938Z,8.00
2018-09-18T18:08:36.444Z,7.43
2018-09-18T18:11:05.290Z,7.03
2018-09-18T18:13:34.307Z,7.30
2018-09-18T18:16:02.825Z,7.73
2018-09-18T18:18:31.343Z,7.10
2018-09-18T18:20:59.854Z,7.47
2018-09-18T18:23:28.362Z,7.73
2018-09-18T18:25:56.870Z,7.70
2018-09-18T18:28:25.393Z,7.67
2018-09-18T18:30:53.910Z,8.03
2018-09-18T18:33:22.677Z,7.87
2018-09-18T18:35:51.111Z,7.33
2018-09-18T18:38:19.612Z,7.77
2018-09-18T18:40:48.132Z,7.80
2018-09-18T18:43:16.632Z,8.13
2018-09-18T18:45:45.136Z,8.10
2018-09-18T18:48:13.726Z,8.03
2018-09-18T18:50:42.188Z,8.40
2018-09-18T18:53:10.695Z,8.07
2018-09-18T18:55:39.198Z,9.13
2018-09-18T18:58:07.716Z,8.53
2018-09-18T19:00:36.288Z,7.67
2018-09-18T19:03:04.743Z,8.17
2018-09-18T19:05:33.257Z,8.23
2018-09-18T19:08:01.764Z,8.77
2018-09-18T19:10:30.276Z,8.63
2018-09-18T19:12:58.791Z,8.20
2018-09-18T19:15:27.309Z,8.43
2018-09-18T19:17:55.814Z,9.03
2018-09-18T19:20:24.314Z,8.10
2018-09-18T19:22:52.845Z,8.80
2018-09-18T19:25:21.345Z,8.07
2018-09-18T19:27:49.865Z,8.57
2018-09-18T19:30:18.372Z,8.60
2018-09-18T19:32:46.919Z,9.43
2018-09-18T19:35:15.399Z,8.63
2018-09-18T19:37:43.901Z,8.63
2018-09-18T19:40:12.398Z,8.20
2018-09-18T19:42:41.011Z,8.43
2018-09-18T19:45:09.546Z,9.17
2018-09-18T19:47:38.060Z,8.63
2018-09-18T19:50:10.764Z,8.77
2018-09-18T19:52:39.283Z,8.87
2018-09-18T19:55:07.775Z,9.33
2018-09-18T19:57:36.602Z,8.83
2018-09-18T20:00:05.611Z,8.47
2018-09-18T20:02:34.124Z,8.80
2018-09-18T20:05:02.634Z,8.43
2018-09-18T20:07:31.131Z,8.57
2018-09-18T20:09:59.753Z,8.57
2018-09-18T20:12:28.316Z,9.10
2018-09-18T20:14:57.154Z,9.40
2018-09-18T20:17:25.829Z,8.77
2018-09-18T20:19:54.386Z,8.43
2018-09-18T20:22:22.911Z,8.40
2018-09-18T20:24:51.855Z,8.60
2018-09-18T20:27:20.368Z,8.57
2018-09-18T20:29:48.958Z,8.77
2018-09-18T20:32:17.383Z,8.83
2018-09-18T20:34:45.891Z,8.30
2018-09-18T20:37:14.401Z,8.83
2018-09-18T20:39:43.075Z,8.60
2018-09-18T20:42:11.603Z,8.97
2018-09-18T20:44:40.104Z,8.07
2018-09-18T20:47:08.595Z,7.83
2018-09-18T20:49:37.091Z,8.67
2018-09-18T20:52:06.199Z,8.57
2018-09-18T20:54:34.848Z,7.83
2018-09-18T20:57:03.351Z,8.13
2018-09-18T20:59:31.862Z,8.27
2018-09-18T21:02:00.413Z,8.30
2018-09-18T21:04:28.901Z,8.40
2018-09-18T21:06:57.465Z,8.00
2018-09-18T21:09:26.361Z,8.23
2018-09-18T21:11:54.860Z,8.30
2018-09-18T21:14:23.397Z,8.77
2018-09-18T21:16:51.883Z,7.90
2018-09-18T21:19:20.376Z,8.63
2018-09-18T21:21:48.863Z,8.20
2018-09-18T21:24:17.366Z,8.10
2018-09-18T21:26:45.872Z,8.10
2018-09-18T21:29:14.372Z,7.80
2018-09-18T21:31:42.876Z,7.93
2018-09-18T21:34:11.380Z,8.20
2018-09-18T21:36:39.883Z,7.97
2018-09-18T21:39:09.883Z,8.10
2018-09-18T21:41:38.399Z,8.00
2018-09-18T21:44:06.940Z,7.70
2018-09-18T21:46:35.478Z,8.10
2018-09-18T21:49:03.993Z,8.33
2018-09-18T21:51:32.495Z,8.17
2018-09-18T21:54:01.006Z,8.37
2018-09-18T21:56:29.510Z,7.87
2018-09-18T21:58:58.008Z,7.10
2018-09-18T22:01:42.969Z,7.53
2018-09-18T22:04:11.796Z,7.90
2018-09-18T22:06:40.310Z,7.63
2018-09-18T22:09:08.813Z,7.33
2018-09-18T22:11:37.311Z,8.37
2018-09-18T22:14:05.810Z,7.83
2018-09-18T22:16:34.316Z,7.40
2018-09-18T22:19:02.827Z,7.60
2018-09-18T22:21:31.343Z,7.50
2018-09-18T22:23:59.844Z,7.83
2018-09-18T22:26:28.347Z,7.83
2018-09-18T22:28:56.851Z,7.77
2018-09-18T22:31:25.351Z,7.33
2018-09-18T22:33:53.838Z,8.00
2018-09-18T22:36:22.338Z,7.80
2018-09-18T22:38:51.011Z,7.40
2018-09-18T22:41:19.606Z,7.73
2018-09-18T22:43:48.071Z,8.20
2018-09-18T22:46:16.584Z,7.77
2018-09-18T22:48:45.080Z,7.47
2018-09-18T22:51:13.591Z,7.60
2018-09-18T22:53:42.542Z,7.53
2018-09-18T22:56:11.019Z,7.70
2018-09-18T22:58:39.546Z,7.53
2018-09-18T23:01:08.046Z,7.73
2018-09-18T23:03:36.559Z,7.73
2018-09-18T23:06:05.069Z,7.73
2018-09-18T23:08:33.571Z,7.50
2018-09-18T23:11:02.070Z,7.37
2018-09-18T23:13:30.587Z,7.67
2018-09-18T23:15:59.076Z,7.37
2018-09-18T23:18:27.571Z,7.20
2018-09-18T23:20:56.068Z,7.73
2018-09-18T23:23:24.584Z,7.30
2018-09-18T23:25:53.079Z,7.70
2018-09-18T23:28:21.586Z,7.13
2018-09-18T23:30:50.088Z,7.53
2018-09-18T23:33:18.600Z,7.30
2018-09-18T23:35:47.104Z,7.07
2018-09-18T23:38:15.608Z,7.03
2018-09-18T23:40:44.111Z,7.27
2018-09-18T23:43:12.636Z,7.80
2018-09-18T23:45:41.152Z,7.33
2018-09-18T23:48:09.651Z,7.50
2018-09-18T23:50:38.155Z,7.27
2018-09-18T23:53:06.963Z,7.07
2018-09-18T23:55:35.457Z,7.17
2018-09-18T23:58:03.949Z,7.30
